sensor_id;sensor_type;location;lat;lon;timestamp;P1;durP1;ratioP1;P2;durP2;ratioP2
51854;SDS011;37895;53.240;6.572;2023-04-19T00:00:32;12.15;;;9.15;;
51854;SDS011;37895;53.240;6.572;2023-04-19T00:02:58;10.13;;;9.07;;
51854;SDS011;37895;53.240;6.572;2023-04-19T00:05:24;10.68;;;8.85;;
51854;SDS011;37895;53.240;6.572;2023-04-19T00:07:50;10.50;;;9.40;;
51854;SDS011;37895;53.240;6.572;2023-04-19T00:10:16;10.17;;;9.13;;
51854;SDS011;37895;53.240;6.572;2023-04-19T00:12:41;10.40;;;9.10;;
51854;SDS011;37895;53.240;6.572;2023-04-19T00:15:07;10.17;;;9.07;;
51854;SDS011;37895;53.240;6.572;2023-04-19T00:17:33;10.93;;;9.20;;
51854;SDS011;37895;53.240;6.572;2023-04-19T00:19:59;13.55;;;9.82;;
51854;SDS011;37895;53.240;6.572;2023-04-19T00:22:25;10.07;;;8.98;;
51854;SDS011;37895;53.240;6.572;2023-04-19T00:24:51;10.45;;;8.48;;
51854;SDS011;37895;53.240;6.572;2023-04-19T00:27:17;12.57;;;9.77;;
51854;SDS011;37895;53.240;6.572;2023-04-19T00:29:43;12.07;;;9.75;;
51854;SDS011;37895;53.240;6.572;2023-04-19T00:32:08;10.77;;;9.60;;
51854;SDS011;37895;53.240;6.572;2023-04-19T00:34:35;10.52;;;9.43;;
51854;SDS011;37895;53.240;6.572;2023-04-19T00:37:01;11.07;;;9.98;;
51854;SDS011;37895;53.240;6.572;2023-04-19T00:39:28;13.10;;;9.32;;
51854;SDS011;37895;53.240;6.572;2023-04-19T00:41:54;11.70;;;9.63;;
51854;SDS011;37895;53.240;6.572;2023-04-19T00:44:21;13.50;;;9.30;;
51854;SDS011;37895;53.240;6.572;2023-04-19T00:46:47;10.60;;;9.48;;
51854;SDS011;37895;53.240;6.572;2023-04-19T00:49:13;10.73;;;9.30;;
51854;SDS011;37895;53.240;6.572;2023-04-19T00:51:40;10.75;;;9.55;;
51854;SDS011;37895;53.240;6.572;2023-04-19T00:54:06;10.43;;;9.35;;
51854;SDS011;37895;53.240;6.572;2023-04-19T00:56:33;11.13;;;10.00;;
51854;SDS011;37895;53.240;6.572;2023-04-19T00:58:59;11.90;;;10.02;;
51854;SDS011;37895;53.240;6.572;2023-04-19T01:01:25;12.75;;;10.90;;
51854;SDS011;37895;53.240;6.572;2023-04-19T01:03:51;12.90;;;10.45;;
51854;SDS011;37895;53.240;6.572;2023-04-19T01:06:17;14.60;;;11.13;;
51854;SDS011;37895;53.240;6.572;2023-04-19T01:08:43;12.82;;;11.52;;
51854;SDS011;37895;53.240;6.572;2023-04-19T01:11:08;14.27;;;11.65;;
51854;SDS011;37895;53.240;6.572;2023-04-19T01:13:34;15.60;;;12.02;;
51854;SDS011;37895;53.240;6.572;2023-04-19T01:16:00;13.88;;;12.02;;
51854;SDS011;37895;53.240;6.572;2023-04-19T01:18:25;14.55;;;12.10;;
51854;SDS011;37895;53.240;6.572;2023-04-19T01:20:56;14.45;;;12.55;;
51854;SDS011;37895;53.240;6.572;2023-04-19T01:23:22;15.02;;;12.85;;
51854;SDS011;37895;53.240;6.572;2023-04-19T01:25:48;14.63;;;13.02;;
51854;SDS011;37895;53.240;6.572;2023-04-19T01:28:14;14.65;;;12.70;;
51854;SDS011;37895;53.240;6.572;2023-04-19T01:30:40;15.32;;;12.65;;
51854;SDS011;37895;53.240;6.572;2023-04-19T01:33:05;13.90;;;12.10;;
51854;SDS011;37895;53.240;6.572;2023-04-19T01:35:31;17.08;;;12.68;;
51854;SDS011;37895;53.240;6.572;2023-04-19T01:37:57;13.60;;;12.00;;
51854;SDS011;37895;53.240;6.572;2023-04-19T01:40:23;15.48;;;13.52;;
51854;SDS011;37895;53.240;6.572;2023-04-19T01:42:50;15.25;;;12.35;;
51854;SDS011;37895;53.240;6.572;2023-04-19T01:45:15;14.60;;;12.70;;
51854;SDS011;37895;53.240;6.572;2023-04-19T01:47:41;14.00;;;12.43;;
51854;SDS011;37895;53.240;6.572;2023-04-19T01:50:07;14.90;;;12.77;;
51854;SDS011;37895;53.240;6.572;2023-04-19T01:52:33;14.65;;;12.43;;
51854;SDS011;37895;53.240;6.572;2023-04-19T01:54:59;16.23;;;12.80;;
51854;SDS011;37895;53.240;6.572;2023-04-19T01:57:24;15.98;;;13.27;;
51854;SDS011;37895;53.240;6.572;2023-04-19T01:59:51;14.52;;;12.65;;
51854;SDS011;37895;53.240;6.572;2023-04-19T02:02:17;15.30;;;13.43;;
51854;SDS011;37895;53.240;6.572;2023-04-19T02:04:43;16.20;;;13.13;;
51854;SDS011;37895;53.240;6.572;2023-04-19T02:07:09;15.00;;;12.43;;
51854;SDS011;37895;53.240;6.572;2023-04-19T02:09:35;14.18;;;12.50;;
51854;SDS011;37895;53.240;6.572;2023-04-19T02:12:02;13.75;;;12.30;;
51854;SDS011;37895;53.240;6.572;2023-04-19T02:14:29;13.38;;;11.98;;
51854;SDS011;37895;53.240;6.572;2023-04-19T02:16:55;13.35;;;11.82;;
51854;SDS011;37895;53.240;6.572;2023-04-19T02:19:20;14.57;;;12.50;;
51854;SDS011;37895;53.240;6.572;2023-04-19T02:21:46;14.77;;;12.17;;
51854;SDS011;37895;53.240;6.572;2023-04-19T02:24:12;12.63;;;11.27;;
51854;SDS011;37895;53.240;6.572;2023-04-19T02:26:38;12.02;;;10.52;;
51854;SDS011;37895;53.240;6.572;2023-04-19T02:29:04;12.52;;;10.45;;
51854;SDS011;37895;53.240;6.572;2023-04-19T02:33:56;9.30;;;8.30;;
51854;SDS011;37895;53.240;6.572;2023-04-19T02:36:21;9.15;;;7.30;;
51854;SDS011;37895;53.240;6.572;2023-04-19T02:38:47;10.55;;;7.68;;
51854;SDS011;37895;53.240;6.572;2023-04-19T02:41:12;9.57;;;8.03;;
51854;SDS011;37895;53.240;6.572;2023-04-19T02:43:38;9.63;;;7.80;;
51854;SDS011;37895;53.240;6.572;2023-04-19T02:46:04;11.75;;;7.65;;
51854;SDS011;37895;53.240;6.572;2023-04-19T02:48:30;9.18;;;7.80;;
51854;SDS011;37895;53.240;6.572;2023-04-19T02:50:56;9.27;;;8.02;;
51854;SDS011;37895;53.240;6.572;2023-04-19T02:53:21;8.45;;;7.30;;
51854;SDS011;37895;53.240;6.572;2023-04-19T02:55:47;9.05;;;8.07;;
51854;SDS011;37895;53.240;6.572;2023-04-19T02:58:13;12.60;;;7.90;;
51854;SDS011;37895;53.240;6.572;2023-04-19T03:00:39;9.73;;;8.25;;
51854;SDS011;37895;53.240;6.572;2023-04-19T03:03:05;9.15;;;8.02;;
51854;SDS011;37895;53.240;6.572;2023-04-19T03:05:31;9.57;;;7.55;;
51854;SDS011;37895;53.240;6.572;2023-04-19T03:07:57;9.43;;;7.82;;
51854;SDS011;37895;53.240;6.572;2023-04-19T03:10:23;8.93;;;7.53;;
51854;SDS011;37895;53.240;6.572;2023-04-19T03:12:48;8.98;;;8.05;;
51854;SDS011;37895;53.240;6.572;2023-04-19T03:15:14;9.32;;;7.85;;
51854;SDS011;37895;53.240;6.572;2023-04-19T03:17:40;10.65;;;7.80;;
51854;SDS011;37895;53.240;6.572;2023-04-19T03:20:06;10.48;;;7.72;;
51854;SDS011;37895;53.240;6.572;2023-04-19T03:22:36;10.45;;;7.95;;
51854;SDS011;37895;53.240;6.572;2023-04-19T03:27:28;9.10;;;8.15;;
51854;SDS011;37895;53.240;6.572;2023-04-19T03:29:54;9.80;;;8.80;;
51854;SDS011;37895;53.240;6.572;2023-04-19T03:32:20;9.98;;;8.13;;
51854;SDS011;37895;53.240;6.572;2023-04-19T03:34:46;9.60;;;7.75;;
51854;SDS011;37895;53.240;6.572;2023-04-19T03:37:12;12.20;;;8.32;;
51854;SDS011;37895;53.240;6.572;2023-04-19T03:39:37;12.43;;;8.80;;
51854;SDS011;37895;53.240;6.572;2023-04-19T03:42:03;10.88;;;8.77;;
51854;SDS011;37895;53.240;6.572;2023-04-19T03:44:32;10.10;;;8.85;;
51854;SDS011;37895;53.240;6.572;2023-04-19T03:46:58;9.98;;;8.20;;
51854;SDS011;37895;53.240;6.572;2023-04-19T03:49:23;9.65;;;8.65;;
51854;SDS011;37895;53.240;6.572;2023-04-19T03:51:49;10.05;;;9.05;;
51854;SDS011;37895;53.240;6.572;2023-04-19T03:54:15;11.80;;;10.35;;
51854;SDS011;37895;53.240;6.572;2023-04-19T03:56:41;11.97;;;10.13;;
51854;SDS011;37895;53.240;6.572;2023-04-19T03:59:07;12.85;;;10.57;;
51854;SDS011;37895;53.240;6.572;2023-04-19T04:01:33;13.32;;;10.50;;
51854;SDS011;37895;53.240;6.572;2023-04-19T04:03:59;14.05;;;12.55;;
51854;SDS011;37895;53.240;6.572;2023-04-19T04:06:25;13.68;;;12.13;;
51854;SDS011;37895;53.240;6.572;2023-04-19T04:08:51;14.05;;;12.18;;
51854;SDS011;37895;53.240;6.572;2023-04-19T04:11:16;12.82;;;11.52;;
51854;SDS011;37895;53.240;6.572;2023-04-19T04:13:42;13.85;;;12.38;;
51854;SDS011;37895;53.240;6.572;2023-04-19T04:16:10;13.27;;;11.73;;
51854;SDS011;37895;53.240;6.572;2023-04-19T04:18:36;14.10;;;11.95;;
51854;SDS011;37895;53.240;6.572;2023-04-19T04:21:01;12.95;;;11.40;;
51854;SDS011;37895;53.240;6.572;2023-04-19T04:23:27;13.68;;;12.30;;
51854;SDS011;37895;53.240;6.572;2023-04-19T04:25:56;14.23;;;11.82;;
51854;SDS011;37895;53.240;6.572;2023-04-19T04:28:24;13.45;;;11.38;;
51854;SDS011;37895;53.240;6.572;2023-04-19T04:30:50;12.52;;;11.23;;
51854;SDS011;37895;53.240;6.572;2023-04-19T04:33:16;13.43;;;12.00;;
51854;SDS011;37895;53.240;6.572;2023-04-19T04:35:42;12.85;;;11.52;;
51854;SDS011;37895;53.240;6.572;2023-04-19T04:38:07;13.63;;;11.23;;
51854;SDS011;37895;53.240;6.572;2023-04-19T04:40:33;11.88;;;10.50;;
51854;SDS011;37895;53.240;6.572;2023-04-19T04:42:59;13.93;;;11.27;;
51854;SDS011;37895;53.240;6.572;2023-04-19T04:45:28;12.02;;;10.82;;
51854;SDS011;37895;53.240;6.572;2023-04-19T04:47:53;13.53;;;10.87;;
51854;SDS011;37895;53.240;6.572;2023-04-19T04:50:19;14.17;;;11.60;;
51854;SDS011;37895;53.240;6.572;2023-04-19T04:52:45;14.32;;;11.35;;
51854;SDS011;37895;53.240;6.572;2023-04-19T04:55:10;13.13;;;10.07;;
51854;SDS011;37895;53.240;6.572;2023-04-19T04:57:36;11.03;;;9.87;;
51854;SDS011;37895;53.240;6.572;2023-04-19T05:00:02;11.23;;;10.03;;
51854;SDS011;37895;53.240;6.572;2023-04-19T05:09:15;11.18;;;9.88;;
51854;SDS011;37895;53.240;6.572;2023-04-19T05:11:41;11.25;;;8.43;;
51854;SDS011;37895;53.240;6.572;2023-04-19T05:14:06;10.93;;;8.88;;
51854;SDS011;37895;53.240;6.572;2023-04-19T05:16:32;10.85;;;7.57;;
51854;SDS011;37895;53.240;6.572;2023-04-19T05:18:58;10.45;;;7.72;;
51854;SDS011;37895;53.240;6.572;2023-04-19T05:21:23;8.52;;;7.68;;
51854;SDS011;37895;53.240;6.572;2023-04-19T05:23:50;8.98;;;7.28;;
51854;SDS011;37895;53.240;6.572;2023-04-19T05:26:17;8.82;;;6.93;;
51854;SDS011;37895;53.240;6.572;2023-04-19T05:28:43;10.68;;;7.13;;
51854;SDS011;37895;53.240;6.572;2023-04-19T05:31:09;7.25;;;6.45;;
51854;SDS011;37895;53.240;6.572;2023-04-19T05:36:01;6.80;;;6.07;;
51854;SDS011;37895;53.240;6.572;2023-04-19T05:38:27;7.40;;;6.45;;
51854;SDS011;37895;53.240;6.572;2023-04-19T05:40:52;8.93;;;6.78;;
51854;SDS011;37895;53.240;6.572;2023-04-19T05:43:18;8.20;;;6.95;;
51854;SDS011;37895;53.240;6.572;2023-04-19T05:45:43;9.23;;;7.53;;
51854;SDS011;37895;53.240;6.572;2023-04-19T05:48:09;10.40;;;8.00;;
51854;SDS011;37895;53.240;6.572;2023-04-19T05:50:35;10.65;;;7.70;;
51854;SDS011;37895;53.240;6.572;2023-04-19T05:53:00;9.00;;;8.02;;
51854;SDS011;37895;53.240;6.572;2023-04-19T05:55:27;8.77;;;7.63;;
51854;SDS011;37895;53.240;6.572;2023-04-19T05:57:53;9.10;;;8.20;;
51854;SDS011;37895;53.240;6.572;2023-04-19T06:00:18;9.30;;;7.38;;
51854;SDS011;37895;53.240;6.572;2023-04-19T06:02:44;9.48;;;7.32;;
51854;SDS011;37895;53.240;6.572;2023-04-19T06:05:10;7.70;;;6.90;;
51854;SDS011;37895;53.240;6.572;2023-04-19T06:07:36;7.05;;;6.22;;
51854;SDS011;37895;53.240;6.572;2023-04-19T06:10:02;8.32;;;6.50;;
51854;SDS011;37895;53.240;6.572;2023-04-19T06:12:28;6.72;;;6.13;;
51854;SDS011;37895;53.240;6.572;2023-04-19T06:15:00;7.32;;;6.55;;
51854;SDS011;37895;53.240;6.572;2023-04-19T06:17:25;8.82;;;6.32;;
51854;SDS011;37895;53.240;6.572;2023-04-19T06:19:51;9.37;;;6.37;;
51854;SDS011;37895;53.240;6.572;2023-04-19T06:22:18;8.85;;;6.63;;
51854;SDS011;37895;53.240;6.572;2023-04-19T06:24:44;7.25;;;6.00;;
51854;SDS011;37895;53.240;6.572;2023-04-19T06:27:13;7.70;;;6.10;;
51854;SDS011;37895;53.240;6.572;2023-04-19T06:29:40;8.32;;;5.93;;
51854;SDS011;37895;53.240;6.572;2023-04-19T06:32:06;8.02;;;6.30;;
51854;SDS011;37895;53.240;6.572;2023-04-19T06:34:32;5.97;;;5.38;;
51854;SDS011;37895;53.240;6.572;2023-04-19T06:36:58;8.80;;;5.50;;
51854;SDS011;37895;53.240;6.572;2023-04-19T06:39:24;6.18;;;5.38;;
51854;SDS011;37895;53.240;6.572;2023-04-19T06:41:51;8.02;;;5.50;;
51854;SDS011;37895;53.240;6.572;2023-04-19T06:44:16;7.07;;;5.25;;
51854;SDS011;37895;53.240;6.572;2023-04-19T06:46:43;5.50;;;4.78;;
51854;SDS011;37895;53.240;6.572;2023-04-19T06:49:08;6.38;;;5.18;;
51854;SDS011;37895;53.240;6.572;2023-04-19T06:51:34;7.13;;;4.93;;
51854;SDS011;37895;53.240;6.572;2023-04-19T06:54:00;4.95;;;4.13;;
51854;SDS011;37895;53.240;6.572;2023-04-19T06:56:38;7.03;;;4.00;;
51854;SDS011;37895;53.240;6.572;2023-04-19T06:59:11;6.18;;;5.13;;
51854;SDS011;37895;53.240;6.572;2023-04-19T07:01:38;5.93;;;3.17;;
51854;SDS011;37895;53.240;6.572;2023-04-19T07:04:05;4.20;;;3.28;;
51854;SDS011;37895;53.240;6.572;2023-04-19T07:06:31;6.60;;;3.83;;
51854;SDS011;37895;53.240;6.572;2023-04-19T07:08:57;5.70;;;3.75;;
51854;SDS011;37895;53.240;6.572;2023-04-19T07:11:22;6.22;;;4.35;;
51854;SDS011;37895;53.240;6.572;2023-04-19T07:13:48;6.15;;;4.10;;
51854;SDS011;37895;53.240;6.572;2023-04-19T07:16:14;7.90;;;4.05;;
51854;SDS011;37895;53.240;6.572;2023-04-19T07:18:41;6.20;;;4.20;;
51854;SDS011;37895;53.240;6.572;2023-04-19T07:21:09;6.43;;;4.35;;
51854;SDS011;37895;53.240;6.572;2023-04-19T07:23:37;4.70;;;3.88;;
51854;SDS011;37895;53.240;6.572;2023-04-19T07:26:03;5.93;;;3.72;;
51854;SDS011;37895;53.240;6.572;2023-04-19T07:28:29;6.10;;;3.53;;
51854;SDS011;37895;53.240;6.572;2023-04-19T07:30:55;3.80;;;3.30;;
51854;SDS011;37895;53.240;6.572;2023-04-19T07:35:48;5.05;;;2.63;;
51854;SDS011;37895;53.240;6.572;2023-04-19T07:38:15;4.93;;;2.95;;
51854;SDS011;37895;53.240;6.572;2023-04-19T07:40:41;4.32;;;2.92;;
51854;SDS011;37895;53.240;6.572;2023-04-19T07:43:06;5.00;;;2.65;;
51854;SDS011;37895;53.240;6.572;2023-04-19T07:45:32;5.78;;;2.88;;
51854;SDS011;37895;53.240;6.572;2023-04-19T07:47:58;3.42;;;2.72;;
51854;SDS011;37895;53.240;6.572;2023-04-19T07:50:24;4.77;;;3.30;;
51854;SDS011;37895;53.240;6.572;2023-04-19T07:52:50;4.60;;;3.45;;
51854;SDS011;37895;53.240;6.572;2023-04-19T07:55:16;5.80;;;3.33;;
51854;SDS011;37895;53.240;6.572;2023-04-19T07:57:42;3.55;;;3.25;;
51854;SDS011;37895;53.240;6.572;2023-04-19T08:00:12;4.53;;;3.10;;
51854;SDS011;37895;53.240;6.572;2023-04-19T08:02:41;4.03;;;2.95;;
51854;SDS011;37895;53.240;6.572;2023-04-19T08:05:08;5.03;;;2.90;;
51854;SDS011;37895;53.240;6.572;2023-04-19T08:07:34;4.75;;;3.28;;
51854;SDS011;37895;53.240;6.572;2023-04-19T08:09:59;3.72;;;3.17;;
51854;SDS011;37895;53.240;6.572;2023-04-19T08:12:25;6.87;;;3.03;;
51854;SDS011;37895;53.240;6.572;2023-04-19T08:14:50;4.47;;;2.90;;
51854;SDS011;37895;53.240;6.572;2023-04-19T08:17:16;4.10;;;2.90;;
51854;SDS011;37895;53.240;6.572;2023-04-19T08:19:45;4.47;;;3.03;;
51854;SDS011;37895;53.240;6.572;2023-04-19T08:22:14;5.63;;;2.55;;
51854;SDS011;37895;53.240;6.572;2023-04-19T08:24:42;3.13;;;2.65;;
51854;SDS011;37895;53.240;6.572;2023-04-19T08:27:08;3.15;;;2.47;;
51854;SDS011;37895;53.240;6.572;2023-04-19T08:29:34;4.65;;;2.80;;
51854;SDS011;37895;53.240;6.572;2023-04-19T08:32:01;3.65;;;2.85;;
51854;SDS011;37895;53.240;6.572;2023-04-19T08:34:27;5.20;;;2.63;;
51854;SDS011;37895;53.240;6.572;2023-04-19T08:39:18;3.90;;;2.72;;
51854;SDS011;37895;53.240;6.572;2023-04-19T08:41:44;3.38;;;2.40;;
51854;SDS011;37895;53.240;6.572;2023-04-19T08:44:12;3.20;;;2.60;;
51854;SDS011;37895;53.240;6.572;2023-04-19T08:46:38;5.00;;;2.80;;
51854;SDS011;37895;53.240;6.572;2023-04-19T08:49:05;4.03;;;2.60;;
51854;SDS011;37895;53.240;6.572;2023-04-19T08:51:32;2.72;;;2.50;;
51854;SDS011;37895;53.240;6.572;2023-04-19T08:53:59;2.92;;;2.65;;
51854;SDS011;37895;53.240;6.572;2023-04-19T08:56:28;3.15;;;2.85;;
51854;SDS011;37895;53.240;6.572;2023-04-19T08:58:54;4.88;;;2.92;;
51854;SDS011;37895;53.240;6.572;2023-04-19T09:01:20;3.15;;;2.85;;
51854;SDS011;37895;53.240;6.572;2023-04-19T09:03:46;3.80;;;2.90;;
51854;SDS011;37895;53.240;6.572;2023-04-19T09:06:11;3.47;;;2.88;;
51854;SDS011;37895;53.240;6.572;2023-04-19T09:08:38;4.72;;;2.80;;
51854;SDS011;37895;53.240;6.572;2023-04-19T09:11:05;3.95;;;2.83;;
51854;SDS011;37895;53.240;6.572;2023-04-19T09:13:31;2.72;;;2.42;;
51854;SDS011;37895;53.240;6.572;2023-04-19T09:15:57;3.55;;;2.80;;
51854;SDS011;37895;53.240;6.572;2023-04-19T09:18:25;3.72;;;2.30;;
51854;SDS011;37895;53.240;6.572;2023-04-19T09:20:51;3.08;;;2.22;;
51854;SDS011;37895;53.240;6.572;2023-04-19T09:23:21;2.85;;;2.50;;
51854;SDS011;37895;53.240;6.572;2023-04-19T09:25:55;3.33;;;2.70;;
51854;SDS011;37895;53.240;6.572;2023-04-19T09:28:25;3.55;;;2.65;;
51854;SDS011;37895;53.240;6.572;2023-04-19T09:30:54;3.20;;;2.63;;
51854;SDS011;37895;53.240;6.572;2023-04-19T09:33:37;3.28;;;2.30;;
51854;SDS011;37895;53.240;6.572;2023-04-19T09:36:05;2.80;;;2.05;;
51854;SDS011;37895;53.240;6.572;2023-04-19T09:38:48;3.20;;;2.30;;
51854;SDS011;37895;53.240;6.572;2023-04-19T09:41:14;2.50;;;2.20;;
51854;SDS011;37895;53.240;6.572;2023-04-19T09:43:41;5.95;;;2.38;;
51854;SDS011;37895;53.240;6.572;2023-04-19T09:46:07;4.05;;;2.30;;
51854;SDS011;37895;53.240;6.572;2023-04-19T09:48:33;2.58;;;2.15;;
51854;SDS011;37895;53.240;6.572;2023-04-19T09:51:01;5.57;;;2.13;;
51854;SDS011;37895;53.240;6.572;2023-04-19T09:53:27;2.50;;;2.00;;
51854;SDS011;37895;53.240;6.572;2023-04-19T09:55:54;7.20;;;2.75;;
51854;SDS011;37895;53.240;6.572;2023-04-19T09:58:20;11.20;;;2.10;;
51854;SDS011;37895;53.240;6.572;2023-04-19T10:00:46;5.07;;;2.13;;
51854;SDS011;37895;53.240;6.572;2023-04-19T10:03:14;2.25;;;1.80;;
51854;SDS011;37895;53.240;6.572;2023-04-19T10:05:41;3.70;;;1.85;;
51854;SDS011;37895;53.240;6.572;2023-04-19T10:08:08;3.65;;;1.75;;
51854;SDS011;37895;53.240;6.572;2023-04-19T10:10:36;2.10;;;1.70;;
51854;SDS011;37895;53.240;6.572;2023-04-19T10:13:03;4.18;;;1.80;;
51854;SDS011;37895;53.240;6.572;2023-04-19T10:15:37;4.97;;;1.98;;
51854;SDS011;37895;53.240;6.572;2023-04-19T10:18:04;4.00;;;1.60;;
51854;SDS011;37895;53.240;6.572;2023-04-19T10:23:23;2.00;;;1.80;;
51854;SDS011;37895;53.240;6.572;2023-04-19T10:25:53;3.78;;;1.85;;
51854;SDS011;37895;53.240;6.572;2023-04-19T10:28:22;3.30;;;1.70;;
51854;SDS011;37895;53.240;6.572;2023-04-19T10:30:58;2.22;;;1.80;;
51854;SDS011;37895;53.240;6.572;2023-04-19T10:33:28;2.65;;;1.75;;
51854;SDS011;37895;53.240;6.572;2023-04-19T10:35:58;3.65;;;2.22;;
51854;SDS011;37895;53.240;6.572;2023-04-19T10:38:40;2.80;;;2.08;;
51854;SDS011;37895;53.240;6.572;2023-04-19T10:41:07;4.10;;;2.00;;
51854;SDS011;37895;53.240;6.572;2023-04-19T10:43:39;3.33;;;1.98;;
51854;SDS011;37895;53.240;6.572;2023-04-19T10:46:53;4.88;;;1.98;;
51854;SDS011;37895;53.240;6.572;2023-04-19T10:51:27;3.13;;;1.75;;
51854;SDS011;37895;53.240;6.572;2023-04-19T10:54:00;3.10;;;2.17;;
51854;SDS011;37895;53.240;6.572;2023-04-19T11:04:04;3.28;;;1.63;;
51854;SDS011;37895;53.240;6.572;2023-04-19T11:06:30;2.63;;;1.88;;
51854;SDS011;37895;53.240;6.572;2023-04-19T11:08:57;3.17;;;2.08;;
51854;SDS011;37895;53.240;6.572;2023-04-19T11:11:24;2.83;;;2.00;;
51854;SDS011;37895;53.240;6.572;2023-04-19T11:13:50;2.55;;;1.80;;
51854;SDS011;37895;53.240;6.572;2023-04-19T11:16:19;3.40;;;2.40;;
51854;SDS011;37895;53.240;6.572;2023-04-19T11:18:45;4.22;;;2.13;;
51854;SDS011;37895;53.240;6.572;2023-04-19T11:21:14;2.83;;;2.17;;
51854;SDS011;37895;53.240;6.572;2023-04-19T11:23:42;2.58;;;1.90;;
51854;SDS011;37895;53.240;6.572;2023-04-19T11:26:11;2.47;;;1.92;;
51854;SDS011;37895;53.240;6.572;2023-04-19T11:28:37;3.38;;;2.58;;
51854;SDS011;37895;53.240;6.572;2023-04-19T11:31:03;2.63;;;1.98;;
51854;SDS011;37895;53.240;6.572;2023-04-19T11:33:33;6.15;;;2.47;;
51854;SDS011;37895;53.240;6.572;2023-04-19T11:35:59;4.97;;;2.03;;
51854;SDS011;37895;53.240;6.572;2023-04-19T11:38:28;3.92;;;1.95;;
51854;SDS011;37895;53.240;6.572;2023-04-19T11:40:59;3.47;;;2.40;;
51854;SDS011;37895;53.240;6.572;2023-04-19T11:43:37;4.00;;;2.53;;
51854;SDS011;37895;53.240;6.572;2023-04-19T11:46:12;18.15;;;4.65;;
51854;SDS011;37895;53.240;6.572;2023-04-19T11:48:39;3.83;;;2.40;;
51854;SDS011;37895;53.240;6.572;2023-04-19T11:51:17;3.10;;;2.28;;
51854;SDS011;37895;53.240;6.572;2023-04-19T11:53:43;3.13;;;2.40;;
51854;SDS011;37895;53.240;6.572;2023-04-19T11:56:09;3.53;;;2.58;;
51854;SDS011;37895;53.240;6.572;2023-04-19T11:58:39;3.83;;;2.55;;
51854;SDS011;37895;53.240;6.572;2023-04-19T12:01:12;4.15;;;2.70;;
51854;SDS011;37895;53.240;6.572;2023-04-19T12:03:46;3.28;;;2.67;;
51854;SDS011;37895;53.240;6.572;2023-04-19T12:06:12;4.25;;;2.72;;
51854;SDS011;37895;53.240;6.572;2023-04-19T12:08:47;3.88;;;3.10;;
51854;SDS011;37895;53.240;6.572;2023-04-19T12:11:15;4.35;;;3.25;;
51854;SDS011;37895;53.240;6.572;2023-04-19T12:13:43;4.97;;;3.20;;
51854;SDS011;37895;53.240;6.572;2023-04-19T12:19:33;3.72;;;2.80;;
51854;SDS011;37895;53.240;6.572;2023-04-19T12:22:08;4.30;;;3.03;;
51854;SDS011;37895;53.240;6.572;2023-04-19T12:24:34;6.00;;;3.35;;
51854;SDS011;37895;53.240;6.572;2023-04-19T12:27:01;7.25;;;3.70;;
51854;SDS011;37895;53.240;6.572;2023-04-19T12:29:26;6.40;;;3.40;;
51854;SDS011;37895;53.240;6.572;2023-04-19T12:31:52;5.35;;;3.63;;
51854;SDS011;37895;53.240;6.572;2023-04-19T12:34:18;8.33;;;4.10;;
51854;SDS011;37895;53.240;6.572;2023-04-19T12:36:44;8.77;;;4.60;;
51854;SDS011;37895;53.240;6.572;2023-04-19T12:39:10;7.60;;;4.68;;
51854;SDS011;37895;53.240;6.572;2023-04-19T12:41:37;6.25;;;4.30;;
51854;SDS011;37895;53.240;6.572;2023-04-19T12:44:02;6.60;;;4.75;;
51854;SDS011;37895;53.240;6.572;2023-04-19T12:46:28;7.82;;;4.32;;
51854;SDS011;37895;53.240;6.572;2023-04-19T12:48:54;9.60;;;4.68;;
51854;SDS011;37895;53.240;6.572;2023-04-19T12:51:19;11.00;;;5.47;;
51854;SDS011;37895;53.240;6.572;2023-04-19T12:53:48;7.70;;;5.05;;
51854;SDS011;37895;53.240;6.572;2023-04-19T12:56:14;9.13;;;4.90;;
51854;SDS011;37895;53.240;6.572;2023-04-19T12:58:41;9.25;;;5.18;;
51854;SDS011;37895;53.240;6.572;2023-04-19T13:01:07;9.88;;;5.50;;
51854;SDS011;37895;53.240;6.572;2023-04-19T13:03:32;7.32;;;4.97;;
51854;SDS011;37895;53.240;6.572;2023-04-19T13:06:03;11.63;;;5.15;;
51854;SDS011;37895;53.240;6.572;2023-04-19T13:08:29;6.85;;;4.75;;
51854;SDS011;37895;53.240;6.572;2023-04-19T13:10:55;8.10;;;4.95;;
51854;SDS011;37895;53.240;6.572;2023-04-19T13:13:23;6.40;;;4.93;;
51854;SDS011;37895;53.240;6.572;2023-04-19T13:15:50;7.45;;;4.95;;
51854;SDS011;37895;53.240;6.572;2023-04-19T13:18:16;8.88;;;5.88;;
51854;SDS011;37895;53.240;6.572;2023-04-19T13:20:42;8.13;;;5.57;;
51854;SDS011;37895;53.240;6.572;2023-04-19T13:23:08;12.55;;;5.50;;
51854;SDS011;37895;53.240;6.572;2023-04-19T13:25:34;7.07;;;5.25;;
51854;SDS011;37895;53.240;6.572;2023-04-19T13:27:59;8.13;;;5.32;;
51854;SDS011;37895;53.240;6.572;2023-04-19T13:30:25;9.13;;;5.63;;
51854;SDS011;37895;53.240;6.572;2023-04-19T13:32:51;7.97;;;4.90;;
51854;SDS011;37895;53.240;6.572;2023-04-19T13:35:16;11.77;;;5.65;;
51854;SDS011;37895;53.240;6.572;2023-04-19T13:37:42;8.40;;;5.40;;
51854;SDS011;37895;53.240;6.572;2023-04-19T13:40:10;9.60;;;5.60;;
51854;SDS011;37895;53.240;6.572;2023-04-19T13:42:36;8.38;;;5.57;;
51854;SDS011;37895;53.240;6.572;2023-04-19T13:45:02;9.57;;;5.70;;
51854;SDS011;37895;53.240;6.572;2023-04-19T13:47:28;11.25;;;5.70;;
51854;SDS011;37895;53.240;6.572;2023-04-19T13:49:54;9.10;;;5.57;;
51854;SDS011;37895;53.240;6.572;2023-04-19T13:52:20;7.00;;;5.07;;
51854;SDS011;37895;53.240;6.572;2023-04-19T13:54:47;8.93;;;5.60;;
51854;SDS011;37895;53.240;6.572;2023-04-19T13:57:13;12.43;;;5.50;;
51854;SDS011;37895;53.240;6.572;2023-04-19T13:59:39;9.57;;;5.20;;
51854;SDS011;37895;53.240;6.572;2023-04-19T14:02:04;7.13;;;5.80;;
51854;SDS011;37895;53.240;6.572;2023-04-19T14:04:30;6.90;;;5.30;;
51854;SDS011;37895;53.240;6.572;2023-04-19T14:06:56;7.45;;;5.50;;
51854;SDS011;37895;53.240;6.572;2023-04-19T14:09:22;9.00;;;5.97;;
51854;SDS011;37895;53.240;6.572;2023-04-19T14:11:48;7.95;;;5.40;;
51854;SDS011;37895;53.240;6.572;2023-04-19T14:14:13;8.18;;;5.93;;
51854;SDS011;37895;53.240;6.572;2023-04-19T14:16:39;8.50;;;5.82;;
51854;SDS011;37895;53.240;6.572;2023-04-19T14:19:05;8.57;;;5.53;;
51854;SDS011;37895;53.240;6.572;2023-04-19T14:21:31;7.20;;;5.22;;
51854;SDS011;37895;53.240;6.572;2023-04-19T14:23:58;7.13;;;4.85;;
51854;SDS011;37895;53.240;6.572;2023-04-19T14:26:24;10.18;;;4.85;;
51854;SDS011;37895;53.240;6.572;2023-04-19T14:28:49;7.53;;;5.25;;
51854;SDS011;37895;53.240;6.572;2023-04-19T14:31:15;13.18;;;5.30;;
51854;SDS011;37895;53.240;6.572;2023-04-19T14:33:41;8.00;;;5.25;;
51854;SDS011;37895;53.240;6.572;2023-04-19T14:36:06;7.85;;;4.80;;
51854;SDS011;37895;53.240;6.572;2023-04-19T14:38:33;5.63;;;4.57;;
51854;SDS011;37895;53.240;6.572;2023-04-19T14:40:59;8.85;;;5.75;;
51854;SDS011;37895;53.240;6.572;2023-04-19T14:43:25;8.55;;;4.43;;
51854;SDS011;37895;53.240;6.572;2023-04-19T14:45:51;7.38;;;4.25;;
51854;SDS011;37895;53.240;6.572;2023-04-19T14:48:17;8.85;;;4.47;;
51854;SDS011;37895;53.240;6.572;2023-04-19T14:50:43;6.15;;;4.50;;
51854;SDS011;37895;53.240;6.572;2023-04-19T14:53:10;12.02;;;4.72;;
51854;SDS011;37895;53.240;6.572;2023-04-19T14:55:35;6.70;;;4.47;;
51854;SDS011;37895;53.240;6.572;2023-04-19T14:58:02;9.23;;;4.45;;
51854;SDS011;37895;53.240;6.572;2023-04-19T15:02:53;5.55;;;3.70;;
51854;SDS011;37895;53.240;6.572;2023-04-19T15:05:20;7.03;;;3.70;;
51854;SDS011;37895;53.240;6.572;2023-04-19T15:07:47;6.00;;;3.38;;
51854;SDS011;37895;53.240;6.572;2023-04-19T15:10:13;7.40;;;3.38;;
51854;SDS011;37895;53.240;6.572;2023-04-19T15:12:39;4.88;;;3.50;;
51854;SDS011;37895;53.240;6.572;2023-04-19T15:15:05;6.15;;;3.53;;